Dades meteomassalio
Diari Summary for Gener 15, 2017 Units:  English    Metric   Both
« Previous Day
Next Day »
Diari Semanal Mensual Anual Personalitzat
  Maxima: Minima: Mijana:
Temperatura: TemperatureC °F 4.0 °F 6.7 °F
Rosada: DewpointC °F 0.7 °F 2.1 °F
Humitat: Humidity % 52 % 73 %
Velocitat del vent: WindSpeedKMH mph 16.7 mph 36.9 mph
Racha vent: WindSpeedGustKMH mph - -
Vent:- - NW
Pressio: PressurehPa in 1022.6 in -
Pluja: 0.0 in    
Historical Graphs
 
 
Tabular Data for Gener 15, 2017
Time Temperature Dew Point Pressure Wind Wind Speed Wind Gust Humidity Rainfall Rate (Hourly) solar Conditions
TemperatureC °F DewpointC °F PressurehPa in Calm     Humidity % HourlyPrecipMM in SolarRadiationWatts/m^2 W/m2 Conditions
00:01 4.2 °F 0.7 °F 1027.3 in NW 20.9 mph 20.9 mph 78 % 0.0 in 0.0 W/m2 CLR
00:06 4.2 °F 0.7 °F 1027.0 in NW 33.3 mph 33.3 mph 78 % 0.0 in 0.0 W/m2 CLR
00:11 4.3 °F 0.8 °F 1027.0 in NW 31.5 mph 31.5 mph 78 % 0.0 in 0.0 W/m2 CLR
00:16 4.3 °F 0.8 °F 1027.0 in NW 40.7 mph 40.7 mph 78 % 0.0 in 0.0 W/m2 CLR
00:21 4.3 °F 0.9 °F 1027.0 in NW 27.8 mph 27.8 mph 79 % 0.0 in 0.0 W/m2 CLR
00:26 4.3 °F 0.9 °F 1027.0 in NW 29.6 mph 29.6 mph 79 % 0.0 in 0.0 W/m2 CLR
00:31 4.3 °F 1.0 °F 1027.3 in NW 27.8 mph 27.8 mph 79 % 0.0 in 0.0 W/m2 CLR
00:36 4.2 °F 0.9 °F 1027.3 in NW 25.9 mph 25.9 mph 79 % 0.0 in 0.0 W/m2 CLR
00:41 4.3 °F 0.9 °F 1027.3 in NW 29.6 mph 29.6 mph 79 % 0.0 in 0.0 W/m2 CLR
00:46 4.3 °F 0.9 °F 1027.3 in NW 31.5 mph 31.5 mph 79 % 0.0 in 0.0 W/m2 CLR
00:51 4.3 °F 1.1 °F 1027.3 in NW 25.9 mph 25.9 mph 80 % 0.0 in 0.0 W/m2 CLR
00:56 4.2 °F 1.1 °F 1027.0 in NW 24.1 mph 24.1 mph 80 % 0.0 in 0.0 W/m2 CLR
01:01 4.2 °F 1.2 °F 1027.0 in NW 25.9 mph 25.9 mph 81 % 0.0 in 0.0 W/m2 CLR
01:06 4.2 °F 1.2 °F 1027.0 in NW 29.6 mph 29.6 mph 81 % 0.0 in 0.0 W/m2 CLR
01:11 4.3 °F 1.1 °F 1027.0 in NW 24.1 mph 24.1 mph 80 % 0.0 in 0.0 W/m2 CLR
01:16 4.2 °F 1.2 °F 1026.6 in NW 31.5 mph 31.5 mph 81 % 0.0 in 0.0 W/m2 CLR
01:21 4.3 °F 1.1 °F 1026.6 in NW 22.2 mph 22.2 mph 80 % 0.0 in 0.0 W/m2 CLR
01:26 4.3 °F 1.1 °F 1026.6 in NW 32.2 mph 32.2 mph 80 % 0.0 in 0.0 W/m2 CLR
01:31 4.3 °F 1.2 °F 1027.0 in WNW 27.8 mph 27.8 mph 80 % 0.0 in 0.0 W/m2 CLR
01:36 4.3 °F 1.2 °F 1026.6 in NW 29.6 mph 29.6 mph 80 % 0.0 in 0.0 W/m2 CLR
01:41 4.3 °F 1.2 °F 1026.6 in NW 24.1 mph 24.1 mph 80 % 0.0 in 0.0 W/m2 CLR
01:46 4.3 °F 1.1 °F 1026.6 in WNW 29.0 mph 29.0 mph 80 % 0.0 in 0.0 W/m2 CLR
01:51 4.3 °F 1.2 °F 1026.6 in WNW 33.3 mph 33.3 mph 80 % 0.0 in 0.0 W/m2 CLR
01:56 4.4 °F 1.1 °F 1026.6 in WNW 31.5 mph 31.5 mph 79 % 0.0 in 0.0 W/m2 CLR
02:01 4.4 °F 1.1 °F 1026.6 in WNW 24.1 mph 25.7 mph 79 % 0.0 in 0.0 W/m2 CLR
02:06 4.4 °F 1.1 °F 1026.6 in WNW 33.3 mph 33.3 mph 79 % 0.0 in 0.0 W/m2 CLR
02:11 4.5 °F 1.2 °F 1026.6 in NW 37.0 mph 37.0 mph 79 % 0.0 in 0.0 W/m2 CLR
02:16 4.6 °F 1.1 °F 1026.6 in NW 33.8 mph 33.8 mph 78 % 0.0 in 0.0 W/m2 CLR
02:21 4.6 °F 1.3 °F 1026.6 in NW 27.8 mph 27.8 mph 79 % 0.0 in 0.0 W/m2 CLR
02:26 4.6 °F 1.2 °F 1026.6 in NW 29.6 mph 29.6 mph 79 % 0.0 in 0.0 W/m2 CLR
02:31 4.6 °F 1.2 °F 1026.3 in NW 31.5 mph 31.5 mph 79 % 0.0 in 0.0 W/m2 CLR
02:36 4.6 °F 1.2 °F 1026.3 in NW 31.5 mph 31.5 mph 79 % 0.0 in 0.0 W/m2 CLR
02:41 4.5 °F 1.2 °F 1026.3 in NW 25.9 mph 27.0 mph 79 % 0.0 in 0.0 W/m2 CLR
02:46 4.6 °F 1.2 °F 1026.3 in NW 24.1 mph 25.9 mph 79 % 0.0 in 0.0 W/m2 CLR
02:51 4.6 °F 1.4 °F 1026.3 in NW 24.1 mph 24.1 mph 80 % 0.0 in 0.0 W/m2 CLR
02:56 4.5 °F 1.3 °F 1026.3 in NW 27.8 mph 27.8 mph 80 % 0.0 in 0.0 W/m2 CLR
03:01 4.4 °F 1.2 °F 1026.6 in NW 25.9 mph 25.9 mph 80 % 0.0 in 0.0 W/m2 CLR
03:06 4.3 °F 1.2 °F 1026.3 in NW 18.5 mph 18.5 mph 80 % 0.0 in 0.0 W/m2 CLR
03:11 4.3 °F 1.3 °F 1026.3 in NW 35.2 mph 35.2 mph 81 % 0.0 in 0.0 W/m2 CLR
03:16 4.3 °F 1.3 °F 1026.3 in NW 29.0 mph 29.0 mph 81 % 0.0 in 0.0 W/m2 CLR
03:21 4.3 °F 1.3 °F 1026.3 in NW 31.5 mph 31.5 mph 81 % 0.0 in 0.0 W/m2 CLR
03:26 4.3 °F 1.3 °F 1026.3 in WNW 33.3 mph 33.3 mph 81 % 0.0 in 0.0 W/m2 CLR
03:31 4.3 °F 1.3 °F 1026.3 in NW 31.5 mph 31.5 mph 81 % 0.0 in 0.0 W/m2 CLR
03:37 4.3 °F 1.3 °F 1026.3 in NW 25.9 mph 25.9 mph 81 % 0.0 in 0.0 W/m2 CLR
03:42 4.2 °F 1.2 °F 1026.3 in NW 24.1 mph 24.1 mph 81 % 0.0 in 0.0 W/m2 CLR
03:47 4.1 °F 1.2 °F 1026.3 in NW 16.7 mph 16.7 mph 81 % 0.0 in 0.0 W/m2 CLR
03:52 4.1 °F 1.3 °F 1026.3 in NW 20.9 mph 20.9 mph 82 % 0.0 in 0.0 W/m2 CLR
03:57 4.2 °F 1.4 °F 1026.3 in NW 24.1 mph 24.1 mph 82 % 0.0 in 0.0 W/m2 CLR
04:02 4.3 °F 1.5 °F 1026.3 in NW 25.9 mph 25.9 mph 82 % 0.0 in 0.0 W/m2 CLR
04:07 4.2 °F 1.4 °F 1026.0 in NW 22.2 mph 22.7 mph 82 % 0.0 in 0.0 W/m2 CLR
04:12 4.2 °F 1.4 °F 1026.0 in NW 24.1 mph 24.1 mph 82 % 0.0 in 0.0 W/m2 CLR
04:17 4.1 °F 1.3 °F 1026.0 in NW 20.9 mph 21.7 mph 82 % 0.0 in 0.0 W/m2 CLR
04:22 4.0 °F 1.2 °F 1025.6 in NW 18.5 mph 18.5 mph 82 % 0.0 in 0.0 W/m2 CLR
04:27 4.1 °F 1.5 °F 1025.6 in NW 37.0 mph 37.0 mph 83 % 0.0 in 0.0 W/m2 CLR
04:32 4.2 °F 1.4 °F 1025.6 in NW 31.5 mph 31.5 mph 82 % 0.0 in 0.0 W/m2 CLR
04:37 4.2 °F 1.4 °F 1025.6 in NW 24.1 mph 24.1 mph 82 % 0.0 in 0.0 W/m2 CLR
04:42 4.3 °F 1.5 °F 1025.6 in WNW 37.0 mph 37.0 mph 82 % 0.0 in 0.0 W/m2 CLR
04:47 4.2 °F 1.4 °F 1025.6 in WNW 24.1 mph 24.1 mph 82 % 0.0 in 0.0 W/m2 CLR
04:52 4.2 °F 1.4 °F 1025.6 in WNW 25.9 mph 25.9 mph 82 % 0.0 in 0.0 W/m2 CLR
04:57 4.2 °F 1.4 °F 1025.6 in NW 24.1 mph 24.1 mph 82 % 0.0 in 0.0 W/m2 CLR
05:02 4.2 °F 1.4 °F 1025.3 in NW 31.5 mph 31.5 mph 82 % 0.0 in 0.0 W/m2 CLR
05:07 4.2 °F 1.4 °F 1025.3 in NW 25.9 mph 25.9 mph 82 % 0.0 in 0.0 W/m2 CLR
05:12 4.2 °F 1.4 °F 1025.3 in WNW 27.8 mph 27.8 mph 82 % 0.0 in 0.0 W/m2 CLR
05:17 4.2 °F 1.4 °F 1025.3 in NW 20.4 mph 20.4 mph 82 % 0.0 in 0.0 W/m2 CLR
05:22 4.2 °F 1.4 °F 1025.3 in WNW 31.5 mph 31.5 mph 82 % 0.0 in 0.0 W/m2 CLR
05:27 4.3 °F 1.5 °F 1025.3 in NW 24.1 mph 24.1 mph 82 % 0.0 in 0.0 W/m2 CLR
05:32 4.3 °F 1.6 °F 1025.3 in NW 31.5 mph 31.5 mph 82 % 0.0 in 0.0 W/m2 CLR
05:37 4.3 °F 1.6 °F 1025.3 in WNW 30.6 mph 30.6 mph 82 % 0.0 in 0.0 W/m2 CLR
05:42 4.3 °F 1.5 °F 1025.3 in NW 33.3 mph 33.3 mph 82 % 0.0 in 0.0 W/m2 CLR
05:47 4.4 °F 1.6 °F 1025.3 in NW 38.9 mph 38.9 mph 82 % 0.0 in 0.0 W/m2 CLR
05:52 4.3 °F 1.6 °F 1025.3 in NW 31.5 mph 31.5 mph 82 % 0.0 in 0.0 W/m2 CLR
05:57 4.3 °F 1.7 °F 1025.3 in NW 33.3 mph 33.3 mph 83 % 0.0 in 0.0 W/m2 CLR
06:02 4.2 °F 1.6 °F 1024.9 in NW 31.5 mph 31.5 mph 83 % 0.0 in 0.0 W/m2 CLR
06:07 4.2 °F 1.6 °F 1024.9 in NW 33.3 mph 33.3 mph 83 % 0.0 in 0.0 W/m2 CLR
06:12 4.1 °F 1.5 °F 1024.9 in NW 27.8 mph 27.8 mph 83 % 0.0 in 0.0 W/m2 CLR
06:17 4.1 °F 1.5 °F 1024.9 in NW 31.5 mph 31.5 mph 83 % 0.0 in 0.0 W/m2 CLR
06:22 4.2 °F 1.6 °F 1024.9 in NW 31.5 mph 31.5 mph 83 % 0.0 in 0.0 W/m2 CLR
06:27 4.2 °F 1.6 °F 1025.3 in WNW 33.3 mph 33.3 mph 83 % 0.0 in 0.0 W/m2 CLR
06:32 4.1 °F 1.5 °F 1024.9 in NW 35.2 mph 35.2 mph 83 % 0.0 in 0.0 W/m2 CLR
06:37 4.2 °F 1.6 °F 1025.3 in NW 38.9 mph 38.9 mph 83 % 0.0 in 0.0 W/m2 CLR
06:42 4.3 °F 1.7 °F 1025.3 in NW 31.5 mph 31.5 mph 83 % 0.0 in 0.0 W/m2 CLR
06:47 4.2 °F 1.6 °F 1025.3 in NW 29.6 mph 29.6 mph 83 % 0.0 in 0.0 W/m2 CLR
06:52 4.2 °F 1.6 °F 1025.3 in NW 24.1 mph 24.1 mph 83 % 0.0 in 0.0 W/m2 CLR
06:57 4.3 °F 1.7 °F 1024.9 in WNW 38.9 mph 38.9 mph 83 % 0.0 in 0.0 W/m2 CLR
07:03 4.3 °F 1.7 °F 1024.9 in NW 31.5 mph 31.5 mph 83 % 0.0 in 0.0 W/m2 CLR
07:08 4.3 °F 1.7 °F 1025.3 in NW 35.2 mph 35.2 mph 83 % 0.0 in 0.0 W/m2 CLR
07:13 4.3 °F 1.7 °F 1024.9 in NW 35.2 mph 35.2 mph 83 % 0.0 in 0.0 W/m2 CLR
07:18 4.2 °F 1.6 °F 1024.9 in NW 29.6 mph 29.6 mph 83 % 0.0 in 0.0 W/m2 CLR
07:23 4.2 °F 1.6 °F 1025.3 in NW 31.5 mph 31.5 mph 83 % 0.0 in 0.0 W/m2 CLR
07:28 4.3 °F 1.7 °F 1024.9 in NW 31.5 mph 31.5 mph 83 % 0.0 in 0.0 W/m2 CLR
07:33 4.3 °F 1.7 °F 1024.9 in NW 31.5 mph 31.5 mph 83 % 0.0 in 0.0 W/m2 CLR
07:38 4.3 °F 1.7 °F 1024.9 in NW 31.5 mph 31.5 mph 83 % 0.0 in 0.0 W/m2 CLR
07:43 4.4 °F 1.8 °F 1024.9 in NW 38.9 mph 38.9 mph 83 % 0.0 in 0.0 W/m2 CLR
07:48 4.4 °F 1.8 °F 1024.9 in NW 35.2 mph 35.2 mph 83 % 0.0 in 0.0 W/m2 CLR
07:53 4.5 °F 1.9 °F 1024.9 in NW 37.0 mph 37.0 mph 83 % 0.0 in 0.0 W/m2 CLR
07:58 4.6 °F 1.8 °F 1024.9 in NW 33.3 mph 33.3 mph 82 % 0.0 in 0.0 W/m2 CLR
08:03 4.7 °F 1.8 °F 1025.3 in NW 44.4 mph 44.4 mph 82 % 0.0 in 0.0 W/m2 CLR
08:08 4.8 °F 1.9 °F 1025.3 in NW 31.5 mph 31.5 mph 82 % 0.0 in 0.0 W/m2 CLR
08:13 4.8 °F 2.0 °F 1025.3 in NW 37.0 mph 37.0 mph 82 % 0.0 in 5.0 W/m2 CLR
08:18 4.9 °F 2.1 °F 1024.9 in NW 37.0 mph 37.0 mph 82 % 0.0 in 5.0 W/m2 CLR
08:23 4.9 °F 2.1 °F 1024.9 in NW 38.9 mph 38.9 mph 82 % 0.0 in 5.0 W/m2 BKN
08:28 5.0 °F 2.2 °F 1024.9 in NW 38.6 mph 38.6 mph 82 % 0.0 in 7.0 W/m2 BKN
08:33 5.1 °F 2.2 °F 1024.9 in NW 35.2 mph 35.2 mph 82 % 0.0 in 11.0 W/m2 BKN
08:38 5.0 °F 2.2 °F 1024.9 in NW 30.6 mph 30.6 mph 82 % 0.0 in 16.0 W/m2 BKN
08:43 5.1 °F 2.2 °F 1024.9 in NW 31.5 mph 31.5 mph 82 % 0.0 in 23.0 W/m2 BKN
08:48 5.1 °F 2.3 °F 1024.9 in NW 29.0 mph 29.0 mph 82 % 0.0 in 28.0 W/m2 BKN
08:53 5.1 °F 2.3 °F 1024.9 in NW 42.6 mph 42.6 mph 82 % 0.0 in 33.0 W/m2 BKN
08:58 5.2 °F 2.2 °F 1024.9 in NW 41.8 mph 41.8 mph 81 % 0.0 in 39.0 W/m2 BKN
09:03 5.3 °F 2.3 °F 1024.9 in NW 38.9 mph 38.9 mph 81 % 0.0 in 42.0 W/m2 BKN
09:08 5.3 °F 2.3 °F 1024.9 in NW 42.6 mph 42.6 mph 81 % 0.0 in 46.0 W/m2 BKN
09:13 5.3 °F 2.3 °F 1024.9 in NW 31.5 mph 31.5 mph 81 % 0.0 in 51.0 W/m2 BKN
09:18 5.3 °F 2.3 °F 1024.9 in NW 42.6 mph 42.6 mph 81 % 0.0 in 54.0 W/m2 BKN
09:23 5.4 °F 2.4 °F 1025.3 in NW 35.2 mph 35.2 mph 81 % 0.0 in 56.0 W/m2 BKN
09:28 5.4 °F 2.4 °F 1025.3 in NW 37.0 mph 37.0 mph 81 % 0.0 in 62.0 W/m2 BKN
09:33 5.6 °F 2.4 °F 1025.3 in NW 42.6 mph 42.6 mph 80 % 0.0 in 128.0 W/m2 BKN
09:38 5.8 °F 2.6 °F 1025.3 in NW 37.0 mph 37.0 mph 80 % 0.0 in 134.0 W/m2 BKN
09:43 5.9 °F 2.5 °F 1025.3 in NW 42.6 mph 42.6 mph 79 % 0.0 in 118.0 W/m2 BKN
09:48 5.9 °F 2.3 °F 1024.9 in NNW 35.2 mph 35.2 mph 78 % 0.0 in 120.0 W/m2 BKN
09:53 6.0 °F 2.4 °F 1025.3 in NW 40.7 mph 40.7 mph 78 % 0.0 in 153.0 W/m2 BKN
09:58 6.2 °F 2.7 °F 1025.3 in NW 31.5 mph 31.5 mph 78 % 0.0 in 139.0 W/m2 BKN
10:03 6.3 °F 2.6 °F 1025.3 in NW 46.3 mph 46.3 mph 77 % 0.0 in 132.0 W/m2 BKN
10:08 6.5 °F 2.6 °F 1025.3 in NW 40.7 mph 40.7 mph 76 % 0.0 in 137.0 W/m2 BKN
10:13 6.6 °F 2.6 °F 1025.3 in NW 33.8 mph 33.8 mph 76 % 0.0 in 186.0 W/m2 BKN
10:18 6.7 °F 2.8 °F 1025.3 in NW 42.6 mph 42.6 mph 76 % 0.0 in 269.0 W/m2 SCT
10:23 6.9 °F 2.8 °F 1025.3 in NW 44.4 mph 44.4 mph 75 % 0.0 in 251.0 W/m2 SCT
10:28 7.1 °F 2.7 °F 1025.3 in NW 40.7 mph 40.7 mph 74 % 0.0 in 299.0 W/m2 FEW
10:33 7.2 °F 2.7 °F 1025.3 in NW 42.6 mph 42.6 mph 73 % 0.0 in 304.0 W/m2 FEW
10:38 7.3 °F 2.6 °F 1025.3 in NW 33.3 mph 33.3 mph 72 % 0.0 in 267.0 W/m2 FEW
10:43 7.4 °F 2.7 °F 1025.3 in NW 37.0 mph 37.0 mph 72 % 0.0 in 313.0 W/m2 SCT
10:48 7.4 °F 2.7 °F 1025.3 in NW 42.6 mph 42.6 mph 72 % 0.0 in 309.0 W/m2 SCT
10:53 7.5 °F 2.6 °F 1025.3 in NNW 61.1 mph 61.1 mph 71 % 0.0 in 283.0 W/m2 FEW
10:58 7.4 °F 2.4 °F 1025.3 in NNW 42.6 mph 42.6 mph 71 % 0.0 in 338.0 W/m2 SCT
11:03 7.7 °F 2.7 °F 1025.3 in NNW 41.8 mph 41.8 mph 71 % 0.0 in 350.0 W/m2 FEW
11:08 7.7 °F 2.8 °F 1025.3 in NNW 42.6 mph 42.6 mph 71 % 0.0 in 359.0 W/m2 FEW
11:13 7.8 °F 2.7 °F 1025.3 in NW 50.0 mph 50.0 mph 70 % 0.0 in 294.0 W/m2 FEW
11:18 7.8 °F 2.7 °F 1025.3 in NNW 49.9 mph 49.9 mph 70 % 0.0 in 350.0 W/m2 FEW
11:23 7.9 °F 2.8 °F 1025.3 in NNW 55.5 mph 55.5 mph 70 % 0.0 in 374.0 W/m2 FEW
11:28 7.9 °F 2.8 °F 1025.3 in NW 56.3 mph 56.3 mph 70 % 0.0 in 381.0 W/m2 FEW
11:33 8.0 °F 2.8 °F 1025.3 in NW 57.4 mph 57.4 mph 70 % 0.0 in 385.0 W/m2 FEW
11:38 8.1 °F 2.8 °F 1025.3 in NW 48.1 mph 48.1 mph 69 % 0.0 in 396.0 W/m2 FEW
11:43 8.2 °F 2.9 °F 1025.3 in NNW 53.7 mph 53.7 mph 69 % 0.0 in 401.0 W/m2 FEW
11:48 8.4 °F 3.0 °F 1024.9 in NW 44.4 mph 44.4 mph 69 % 0.0 in 408.0 W/m2 FEW
11:53 8.7 °F 3.1 °F 1024.9 in NNW 37.0 mph 37.0 mph 68 % 0.0 in 413.0 W/m2 FEW
11:58 8.8 °F 2.8 °F 1024.9 in NNW 44.4 mph 44.4 mph 66 % 0.0 in 417.0 W/m2 FEW
12:03 8.8 °F 2.8 °F 1024.9 in NNW 50.0 mph 50.0 mph 66 % 0.0 in 411.0 W/m2 FEW
12:08 8.8 °F 2.8 °F 1024.9 in NNW 46.3 mph 46.3 mph 66 % 0.0 in 429.0 W/m2 FEW
12:13 9.1 °F 2.8 °F 1024.9 in NNW 45.1 mph 45.1 mph 65 % 0.0 in 432.0 W/m2 FEW
12:18 9.2 °F 2.9 °F 1024.9 in NNW 44.4 mph 44.4 mph 65 % 0.0 in 436.0 W/m2 CLR
12:23 9.3 °F 3.1 °F 1024.9 in NNW 33.8 mph 33.9 mph 65 % 0.0 in 441.0 W/m2 CLR
12:28 9.2 °F 3.0 °F 1024.6 in NNW 57.4 mph 57.4 mph 65 % 0.0 in 445.0 W/m2 CLR
12:34 9.2 °F 2.9 °F 1024.6 in NNW 38.6 mph 38.6 mph 65 % 0.0 in 446.0 W/m2 CLR
12:39 9.2 °F 3.0 °F 1024.6 in NW 50.0 mph 50.0 mph 65 % 0.0 in 450.0 W/m2 CLR
12:44 9.4 °F 3.2 °F 1024.6 in NW 31.5 mph 31.5 mph 65 % 0.0 in 455.0 W/m2 CLR
12:49 9.5 °F 3.0 °F 1024.6 in NW 48.1 mph 48.1 mph 64 % 0.0 in 454.0 W/m2 CLR
12:54 9.4 °F 2.9 °F 1024.6 in NW 55.5 mph 55.5 mph 64 % 0.0 in 459.0 W/m2 CLR
12:59 9.3 °F 2.9 °F 1024.6 in NNW 51.8 mph 51.8 mph 64 % 0.0 in 464.0 W/m2 CLR
13:04 9.4 °F 2.9 °F 1024.6 in NNW 53.1 mph 53.1 mph 64 % 0.0 in 457.0 W/m2 CLR
13:09 9.3 °F 2.9 °F 1024.3 in NNW 31.5 mph 31.5 mph 64 % 0.0 in 462.0 W/m2 CLR
13:14 9.7 °F 3.2 °F 1024.3 in NW 40.7 mph 40.7 mph 64 % 0.0 in 464.0 W/m2 CLR
13:19 9.7 °F 3.2 °F 1024.3 in NW 42.6 mph 42.6 mph 64 % 0.0 in 466.0 W/m2 CLR
13:24 9.8 °F 3.1 °F 1023.9 in NW 38.9 mph 38.9 mph 63 % 0.0 in 434.0 W/m2 CLR
13:29 9.9 °F 3.2 °F 1023.9 in NW 41.8 mph 41.8 mph 63 % 0.0 in 464.0 W/m2 CLR
13:34 10.1 °F 3.3 °F 1023.6 in NW 33.3 mph 33.3 mph 63 % 0.0 in 468.0 W/m2 CLR
13:39 10.3 °F 3.6 °F 1023.6 in NW 33.8 mph 33.8 mph 63 % 0.0 in 445.0 W/m2 CLR
13:44 10.3 °F 3.1 °F 1023.6 in NW 42.6 mph 42.6 mph 61 % 0.0 in 452.0 W/m2 CLR
13:49 10.4 °F 2.9 °F 1023.2 in NW 35.2 mph 35.2 mph 60 % 0.0 in 450.0 W/m2 CLR
13:54 10.4 °F 3.0 °F 1023.2 in NW 35.2 mph 35.2 mph 60 % 0.0 in 454.0 W/m2 CLR
13:59 10.7 °F 3.0 °F 1023.2 in NW 37.0 mph 37.0 mph 59 % 0.0 in 452.0 W/m2 CLR
14:04 10.8 °F 2.9 °F 1022.9 in NW 46.3 mph 46.3 mph 58 % 0.0 in 446.0 W/m2 CLR
14:09 10.7 °F 2.5 °F 1023.2 in NW 38.9 mph 38.9 mph 57 % 0.0 in 450.0 W/m2 CLR
14:14 10.8 °F 2.7 °F 1022.9 in NW 40.7 mph 40.7 mph 57 % 0.0 in 441.0 W/m2 CLR
14:19 11.1 °F 2.6 °F 1022.9 in NW 30.6 mph 30.6 mph 56 % 0.0 in 438.0 W/m2 CLR
14:24 11.2 °F 2.2 °F 1022.6 in NW 44.4 mph 44.4 mph 54 % 0.0 in 373.0 W/m2 CLR
14:29 11.2 °F 1.7 °F 1022.9 in NW 44.4 mph 44.4 mph 52 % 0.0 in 385.0 W/m2 CLR
14:34 11.2 °F 1.9 °F 1022.9 in NW 50.0 mph 50.0 mph 53 % 0.0 in 483.0 W/m2 CLR
14:39 11.3 °F 2.1 °F 1022.9 in NNW 42.6 mph 42.6 mph 53 % 0.0 in 443.0 W/m2 CLR
14:44 11.2 °F 2.0 °F 1022.9 in NNW 37.0 mph 37.0 mph 53 % 0.0 in 452.0 W/m2 CLR
14:49 11.2 °F 1.9 °F 1023.2 in NNW 53.7 mph 53.7 mph 53 % 0.0 in 362.0 W/m2 CLR
14:54 10.9 °F 1.9 °F 1023.2 in NW 40.7 mph 40.7 mph 54 % 0.0 in 332.0 W/m2 CLR
14:59 10.8 °F 1.9 °F 1023.2 in NW 48.1 mph 48.1 mph 54 % 0.0 in 313.0 W/m2 CLR
15:04 10.7 °F 2.1 °F 1023.2 in NW 42.6 mph 42.6 mph 55 % 0.0 in 334.0 W/m2 CLR
15:09 10.6 °F 1.7 °F 1023.2 in NW 54.7 mph 54.7 mph 54 % 0.0 in 229.0 W/m2 CLR
15:14 10.6 °F 1.6 °F 1023.2 in NW 37.0 mph 37.0 mph 54 % 0.0 in 220.0 W/m2 CLR
15:19 10.6 °F 1.7 °F 1023.2 in NW 55.5 mph 55.5 mph 54 % 0.0 in 320.0 W/m2 CLR
15:24 10.4 °F 1.4 °F 1023.6 in NW 66.6 mph 66.6 mph 54 % 0.0 in 223.0 W/m2 FEW
15:29 10.3 °F 1.4 °F 1023.6 in NW 46.3 mph 46.3 mph 54 % 0.0 in 229.0 W/m2 SCT
15:35 10.4 °F 1.5 °F 1023.2 in NW 37.0 mph 38.1 mph 54 % 0.0 in 345.0 W/m2 SCT
15:39 10.3 °F 1.4 °F 1023.6 in NW 53.7 mph 53.7 mph 54 % 0.0 in 179.0 W/m2 FEW
15:45 10.3 °F 1.6 °F 1023.6 in NW 46.3 mph 46.3 mph 55 % 0.0 in 315.0 W/m2 CLR
15:50 10.4 °F 1.8 °F 1023.6 in NW 48.1 mph 48.1 mph 55 % 0.0 in 315.0 W/m2 CLR
15:55 10.6 °F 1.7 °F 1023.6 in NW 53.7 mph 53.7 mph 54 % 0.0 in 387.0 W/m2 CLR
16:00 10.6 °F 1.6 °F 1023.6 in NW 51.8 mph 51.8 mph 54 % 0.0 in 323.0 W/m2 CLR
16:05 10.6 °F 1.6 °F 1023.6 in NW 46.3 mph 46.3 mph 54 % 0.0 in 306.0 W/m2 CLR
16:10 10.5 °F 1.6 °F 1023.9 in NW 48.1 mph 48.1 mph 54 % 0.0 in 274.0 W/m2 CLR
16:15 10.3 °F 1.7 °F 1023.9 in NW 40.7 mph 40.7 mph 55 % 0.0 in 258.0 W/m2 CLR
16:20 10.1 °F 1.4 °F 1023.9 in NW 50.0 mph 50.0 mph 55 % 0.0 in 213.0 W/m2 CLR
16:25 10.0 °F 1.6 °F 1023.9 in NW 40.7 mph 40.7 mph 56 % 0.0 in 197.0 W/m2 CLR
16:30 9.9 °F 1.5 °F 1023.9 in NNW 46.3 mph 46.3 mph 56 % 0.0 in 172.0 W/m2 CLR
16:35 9.9 °F 1.8 °F 1023.9 in NNW 46.3 mph 46.3 mph 57 % 0.0 in 120.0 W/m2 CLR
16:40 9.7 °F 1.6 °F 1023.9 in NW 46.3 mph 46.3 mph 57 % 0.0 in 144.0 W/m2 CLR
16:45 9.6 °F 1.7 °F 1023.9 in NW 50.0 mph 50.0 mph 58 % 0.0 in 144.0 W/m2 CLR
16:50 9.5 °F 1.9 °F 1023.9 in NW 51.5 mph 51.5 mph 59 % 0.0 in 111.0 W/m2 CLR
16:55 9.4 °F 1.8 °F 1023.9 in NW 64.8 mph 64.8 mph 59 % 0.0 in 97.0 W/m2 CLR
17:00 9.3 °F 1.7 °F 1023.9 in NW 50.0 mph 50.0 mph 59 % 0.0 in 83.0 W/m2 CLR
17:05 9.2 °F 1.8 °F 1023.9 in NW 50.0 mph 50.0 mph 60 % 0.0 in 60.0 W/m2 CLR
17:10 9.1 °F 1.9 °F 1024.3 in NW 50.0 mph 50.0 mph 61 % 0.0 in 35.0 W/m2 CLR
17:15 8.9 °F 1.8 °F 1024.3 in NW 51.8 mph 51.8 mph 61 % 0.0 in 23.0 W/m2 OVC
17:20 8.8 °F 1.9 °F 1024.3 in NW 46.3 mph 46.3 mph 62 % 0.0 in 18.0 W/m2 OVC
17:25 8.6 °F 1.9 °F 1024.3 in NW 33.3 mph 33.3 mph 63 % 0.0 in 14.0 W/m2 OVC
17:30 8.5 °F 1.8 °F 1024.3 in NW 43.4 mph 43.4 mph 63 % 0.0 in 14.0 W/m2 OVC
17:35 8.4 °F 1.7 °F 1024.3 in NW 33.3 mph 33.3 mph 63 % 0.0 in 12.0 W/m2 OVC
17:40 8.3 °F 1.9 °F 1024.3 in NW 44.4 mph 44.4 mph 64 % 0.0 in 12.0 W/m2 OVC
17:45 8.3 °F 2.1 °F 1024.3 in NW 35.4 mph 35.4 mph 65 % 0.0 in 14.0 W/m2 OVC
17:50 8.2 °F 2.0 °F 1024.3 in NW 42.6 mph 42.6 mph 65 % 0.0 in 11.0 W/m2 OVC
17:55 8.2 °F 2.2 °F 1024.3 in NW 50.0 mph 50.0 mph 66 % 0.0 in 7.0 W/m2 OVC
18:00 8.2 °F 2.2 °F 1024.3 in NW 40.7 mph 40.7 mph 66 % 0.0 in 0.0 W/m2 CLR
18:05 8.1 °F 2.3 °F 1024.6 in NW 40.7 mph 40.7 mph 67 % 0.0 in 0.0 W/m2 CLR
18:10 8.0 °F 2.2 °F 1024.6 in NW 44.4 mph 44.4 mph 67 % 0.0 in 0.0 W/m2 CLR
18:15 7.9 °F 2.3 °F 1024.6 in NW 46.3 mph 46.3 mph 68 % 0.0 in 0.0 W/m2 CLR
18:20 7.8 °F 2.2 °F 1024.6 in NW 31.5 mph 31.5 mph 68 % 0.0 in 0.0 W/m2 CLR
18:25 7.7 °F 2.4 °F 1024.6 in NW 42.6 mph 42.6 mph 69 % 0.0 in 0.0 W/m2 CLR
18:30 7.7 °F 2.4 °F 1024.6 in NW 33.3 mph 33.3 mph 69 % 0.0 in 0.0 W/m2 CLR
18:35 7.7 °F 2.3 °F 1024.9 in NW 31.5 mph 31.5 mph 69 % 0.0 in 0.0 W/m2 CLR
18:40 7.6 °F 2.4 °F 1024.9 in NW 31.5 mph 31.5 mph 70 % 0.0 in 0.0 W/m2 CLR
18:45 7.4 °F 2.5 °F 1024.9 in NW 29.0 mph 29.0 mph 71 % 0.0 in 0.0 W/m2 CLR
18:50 7.4 °F 2.4 °F 1024.9 in NW 35.2 mph 35.2 mph 71 % 0.0 in 0.0 W/m2 CLR
18:55 7.3 °F 2.6 °F 1024.9 in NW 31.5 mph 31.9 mph 72 % 0.0 in 0.0 W/m2 CLR
19:00 7.3 °F 2.6 °F 1024.9 in NW 42.6 mph 42.6 mph 72 % 0.0 in 0.0 W/m2 CLR
19:05 7.2 °F 2.5 °F 1024.9 in NW 25.9 mph 25.9 mph 72 % 0.0 in 0.0 W/m2 CLR
19:10 7.2 °F 2.7 °F 1024.9 in NW 33.8 mph 33.8 mph 73 % 0.0 in 0.0 W/m2 CLR
19:15 7.2 °F 2.7 °F 1024.9 in NW 42.6 mph 42.6 mph 73 % 0.0 in 0.0 W/m2 CLR
19:20 7.2 °F 2.7 °F 1024.9 in NW 44.4 mph 44.4 mph 73 % 0.0 in 0.0 W/m2 CLR
19:25 7.2 °F 2.7 °F 1024.9 in NW 50.0 mph 50.0 mph 73 % 0.0 in 0.0 W/m2 CLR
19:30 7.2 °F 2.7 °F 1024.9 in NW 44.4 mph 44.4 mph 73 % 0.0 in 0.0 W/m2 CLR
19:35 7.1 °F 2.6 °F 1024.9 in NW 38.9 mph 38.9 mph 73 % 0.0 in 0.0 W/m2 CLR
19:40 7.1 °F 2.6 °F 1024.9 in NW 40.7 mph 40.7 mph 73 % 0.0 in 0.0 W/m2 CLR
19:45 7.0 °F 2.5 °F 1024.9 in NW 35.2 mph 35.2 mph 73 % 0.0 in 0.0 W/m2 CLR
19:50 7.0 °F 2.7 °F 1024.9 in NW 42.6 mph 42.6 mph 74 % 0.0 in 0.0 W/m2 CLR
19:55 7.0 °F 2.7 °F 1024.9 in NW 44.4 mph 44.4 mph 74 % 0.0 in 0.0 W/m2 CLR
19:56 6.9 °F 2.6 °F 1024.9 in NW 38.9 mph 38.9 mph 74 % 0.0 in 0.0 W/m2 CLR
20:01 6.9 °F 2.6 °F 1024.9 in NW 33.8 mph 33.8 mph 74 % 0.0 in 0.0 W/m2 CLR
20:06 6.9 °F 2.6 °F 1024.9 in NW 42.6 mph 42.6 mph 74 % 0.0 in 0.0 W/m2 CLR
20:11 6.9 °F 2.6 °F 1024.9 in NW 48.1 mph 48.1 mph 74 % 0.0 in 0.0 W/m2 CLR
20:16 6.9 °F 2.6 °F 1024.9 in NW 38.9 mph 38.9 mph 74 % 0.0 in 0.0 W/m2 CLR
20:21 6.8 °F 2.5 °F 1024.9 in NW 40.7 mph 40.7 mph 74 % 0.0 in 0.0 W/m2 CLR
20:26 6.8 °F 2.5 °F 1024.9 in NW 51.8 mph 51.8 mph 74 % 0.0 in 0.0 W/m2 CLR
20:31 6.8 °F 2.4 °F 1024.9 in NW 37.0 mph 37.0 mph 74 % 0.0 in 0.0 W/m2 CLR
20:36 6.8 °F 2.4 °F 1024.9 in NW 42.6 mph 42.6 mph 74 % 0.0 in 0.0 W/m2 CLR
20:41 6.8 °F 2.4 °F 1024.9 in NW 35.2 mph 35.2 mph 74 % 0.0 in 0.0 W/m2 CLR
20:46 6.7 °F 2.4 °F 1024.9 in NW 35.4 mph 35.4 mph 74 % 0.0 in 0.0 W/m2 CLR
20:51 6.8 °F 2.4 °F 1024.9 in NW 38.9 mph 38.9 mph 74 % 0.0 in 0.0 W/m2 CLR
20:56 6.8 °F 2.5 °F 1024.9 in NNW 42.6 mph 42.6 mph 74 % 0.0 in 0.0 W/m2 CLR
21:01 6.8 °F 2.4 °F 1024.9 in NW 42.6 mph 42.6 mph 74 % 0.0 in 0.0 W/m2 CLR
21:06 6.8 °F 2.4 °F 1024.9 in NW 38.6 mph 38.6 mph 74 % 0.0 in 0.0 W/m2 CLR
21:11 6.7 °F 2.6 °F 1024.9 in NW 38.9 mph 38.9 mph 75 % 0.0 in 0.0 W/m2 CLR
21:16 6.8 °F 2.8 °F 1024.9 in NW 31.5 mph 31.5 mph 76 % 0.0 in 0.0 W/m2 CLR
21:21 6.8 °F 2.8 °F 1024.9 in NW 50.0 mph 50.0 mph 76 % 0.0 in 0.0 W/m2 CLR
21:26 6.8 °F 2.9 °F 1024.6 in NW 50.0 mph 50.0 mph 76 % 0.0 in 0.0 W/m2 CLR
21:31 6.8 °F 2.9 °F 1024.6 in NW 46.7 mph 46.7 mph 76 % 0.0 in 0.0 W/m2 CLR
21:36 6.9 °F 2.9 °F 1024.9 in NW 40.7 mph 40.7 mph 76 % 0.0 in 0.0 W/m2 CLR
21:41 6.8 °F 2.9 °F 1024.9 in NW 42.6 mph 42.6 mph 76 % 0.0 in 0.0 W/m2 CLR
21:46 6.8 °F 2.8 °F 1024.9 in NW 33.3 mph 33.3 mph 76 % 0.0 in 0.0 W/m2 CLR
21:51 6.8 °F 3.0 °F 1024.9 in NW 33.8 mph 33.8 mph 77 % 0.0 in 0.0 W/m2 CLR
21:56 6.7 °F 2.9 °F 1024.9 in NW 32.2 mph 32.2 mph 77 % 0.0 in 0.0 W/m2 CLR
22:01 6.7 °F 3.1 °F 1024.9 in WNW 30.6 mph 30.6 mph 78 % 0.0 in 0.0 W/m2 CLR
22:06 6.7 °F 3.2 °F 1024.9 in WNW 32.2 mph 32.2 mph 78 % 0.0 in 0.0 W/m2 CLR
22:11 6.8 °F 3.4 °F 1024.6 in WNW 33.3 mph 33.3 mph 79 % 0.0 in 0.0 W/m2 CLR
22:16 6.8 °F 3.4 °F 1024.9 in WNW 35.2 mph 35.2 mph 79 % 0.0 in 0.0 W/m2 CLR
22:21 6.7 °F 3.3 °F 1024.9 in WNW 25.9 mph 25.9 mph 79 % 0.0 in 0.0 W/m2 CLR
22:26 6.7 °F 3.5 °F 1024.9 in NW 29.6 mph 29.6 mph 80 % 0.0 in 0.0 W/m2 CLR
22:31 6.7 °F 3.5 °F 1024.9 in WNW 31.5 mph 31.5 mph 80 % 0.0 in 0.0 W/m2 CLR
22:36 6.7 °F 3.5 °F 1024.9 in NW 27.8 mph 27.8 mph 80 % 0.0 in 0.0 W/m2 CLR
22:41 6.7 °F 3.5 °F 1024.9 in NW 25.7 mph 25.7 mph 80 % 0.0 in 0.0 W/m2 CLR
22:46 6.7 °F 3.5 °F 1024.9 in NW 20.4 mph 20.4 mph 80 % 0.0 in 0.0 W/m2 CLR
22:51 6.7 °F 3.5 °F 1024.9 in NW 24.1 mph 24.1 mph 80 % 0.0 in 0.0 W/m2 CLR
22:56 6.8 °F 3.6 °F 1024.9 in NW 37.0 mph 37.0 mph 80 % 0.0 in 0.0 W/m2 CLR
23:01 6.9 °F 3.7 °F 1024.6 in NW 42.6 mph 42.6 mph 80 % 0.0 in 0.0 W/m2 CLR
23:06 6.9 °F 3.7 °F 1024.6 in NW 29.6 mph 29.6 mph 80 % 0.0 in 0.0 W/m2 CLR
23:11 6.9 °F 3.7 °F 1024.6 in NW 27.8 mph 27.8 mph 80 % 0.0 in 0.0 W/m2 CLR
23:16 6.9 °F 3.7 °F 1024.6 in NW 27.8 mph 27.8 mph 80 % 0.0 in 0.0 W/m2 CLR
23:21 7.1 °F 3.8 °F 1024.6 in NW 37.0 mph 37.0 mph 80 % 0.0 in 0.0 W/m2 CLR
23:26 7.0 °F 3.8 °F 1024.6 in NW 37.0 mph 37.0 mph 80 % 0.0 in 0.0 W/m2 CLR
23:31 7.0 °F 3.8 °F 1024.6 in NW 33.3 mph 33.3 mph 80 % 0.0 in 0.0 W/m2 CLR
23:36 7.0 °F 3.8 °F 1024.6 in NW 38.9 mph 38.9 mph 80 % 0.0 in 0.0 W/m2 CLR
23:41 7.0 °F 3.8 °F 1024.6 in NW 31.5 mph 31.5 mph 80 % 0.0 in 0.0 W/m2 CLR
23:46 6.9 °F 3.7 °F 1024.6 in NW 24.1 mph 24.1 mph 80 % 0.0 in 0.0 W/m2 CLR
23:51 6.9 °F 3.8 °F 1024.6 in NW 27.8 mph 27.8 mph 81 % 0.0 in 0.0 W/m2 CLR
23:56 6.9 °F 3.9 °F 1024.6 in NW 37.0 mph 37.0 mph 81 % 0.0 in 0.0 W/m2 CLR
Lo Temps de Massalio
Compliments of Weather Underground - 1.25 mb